JFK weather

John F Kennedy International Airport
New York, New York, United States

Public forecast

Using degrees Fahrenheit for public forecast. Weather courtesy of forecast.io.

METAR (pilot weather report)

Retrieved 2017/04/24 08:51 UTC (20 minutes ago):

KJFK 240851Z 00000KT 10SM SCT250 07/06 A3014

TAF (pilot weather forecast)

Retrieved 2017/04/24 06:54 UTC (2 hours ago):

TAF KJFK 240548Z 2406/2512 13003KT P6SM BKN250 FM241500 09005KT P6SM BKN150 FM241800 12011KT P6SM BKN100 FM242200 11011KT P6SM SCT050 BKN080 FM250300 07010KT P6SM -RA SCT015 OVC060 FM250600 06011KT 5SM -RA BR BKN010 OVC020